createdAt,value
2017-04-13T00:00:45.082Z,65.6
2017-04-13T00:01:46.928Z,65.6
2017-04-13T00:02:48.782Z,65.6
2017-04-13T00:03:50.635Z,65.5
2017-04-13T00:04:52.498Z,65.6
2017-04-13T00:05:54.679Z,65.6
2017-04-13T00:06:56.870Z,65.4
2017-04-13T00:07:58.724Z,65.5
2017-04-13T00:09:00.916Z,65.5
2017-04-13T00:10:02.765Z,65.5
2017-04-13T00:11:04.621Z,65.5
2017-04-13T00:12:06.476Z,65.5
2017-04-13T00:13:08.335Z,65.3
2017-04-13T00:14:10.187Z,65.4
2017-04-13T00:15:12.042Z,65.3
2017-04-13T00:16:13.894Z,65.5
2017-04-13T00:17:15.763Z,65.5
2017-04-13T00:18:17.613Z,65.5
2017-04-13T00:19:19.482Z,65.6
2017-04-13T00:20:21.334Z,64.6
2017-04-13T00:21:23.191Z,64.5
2017-04-13T00:22:25.046Z,64.5
2017-04-13T00:23:26.906Z,64.5
2017-04-13T00:24:28.749Z,64.5
2017-04-13T00:25:30.653Z,64.4
2017-04-13T00:26:32.501Z,64.5
2017-04-13T00:27:34.699Z,64.5
2017-04-13T00:28:36.546Z,64.5
2017-04-13T00:29:38.755Z,64.4
2017-04-13T00:30:40.618Z,64.5
2017-04-13T00:31:42.466Z,64.6
2017-04-13T00:32:44.352Z,64.5
2017-04-13T00:33:46.202Z,64.4
2017-04-13T00:34:48.063Z,64.4
2017-04-13T00:35:49.917Z,64.5
2017-04-13T00:36:51.773Z,64.6
2017-04-13T00:37:53.628Z,64.6
2017-04-13T00:38:55.818Z,64.6
2017-04-13T00:39:58.038Z,64.6
2017-04-13T00:41:00.228Z,64.5
2017-04-13T00:42:02.087Z,64.4
2017-04-13T00:43:03.952Z,64.5
2017-04-13T00:44:05.799Z,64.4
2017-04-13T00:45:07.657Z,64.3
2017-04-13T00:46:09.516Z,64.4
2017-04-13T00:47:11.368Z,65.3
2017-04-13T00:48:13.223Z,65.3
2017-04-13T00:49:15.440Z,64.4
2017-04-13T00:50:17.307Z,65.3
2017-04-13T00:51:19.165Z,65.4
2017-04-13T00:52:21.039Z,65.5
2017-04-13T00:53:23.234Z,64.7
2017-04-13T00:54:25.085Z,65.6
2017-04-13T00:55:26.945Z,64.7
2017-04-13T00:56:28.799Z,64.5
2017-04-13T00:57:30.992Z,64.5
2017-04-13T00:58:32.852Z,64.4
2017-04-13T00:59:34.712Z,64.4
2017-04-13T01:00:36.554Z,64.4
2017-04-13T01:01:38.399Z,64.5
2017-04-13T01:02:40.248Z,65.3
2017-04-13T01:03:42.135Z,65.3
2017-04-13T01:04:43.993Z,65.3
2017-04-13T01:05:45.846Z,65.4
2017-04-13T01:06:47.690Z,65.4
2017-04-13T01:07:49.545Z,65.4
2017-04-13T01:08:51.741Z,65.4
2017-04-13T01:09:53.590Z,65.4
2017-04-13T01:10:55.445Z,65.4
2017-04-13T01:11:57.311Z,65.4
2017-04-13T01:12:59.172Z,65.2
2017-04-13T01:14:01.030Z,65.2
2017-04-13T01:15:02.871Z,65.3
2017-04-13T01:16:04.732Z,65.4
2017-04-13T01:17:06.636Z,65.5
2017-04-13T01:18:08.846Z,65.5
2017-04-13T01:19:11.039Z,65.6
2017-04-13T01:20:12.885Z,65.5
2017-04-13T01:21:14.746Z,65.5
2017-04-13T01:22:16.600Z,65.5
2017-04-13T01:23:18.460Z,65.5
2017-04-13T01:24:20.316Z,65.6
2017-04-13T01:25:22.166Z,65.6
2017-04-13T01:26:24.357Z,65.7
2017-04-13T01:27:26.202Z,65.7
2017-04-13T01:28:28.072Z,65.8
2017-04-13T01:29:29.919Z,65.7
2017-04-13T01:30:31.776Z,65.7
2017-04-13T01:31:33.633Z,65.7
2017-04-13T01:32:35.488Z,65.7
2017-04-13T01:33:37.701Z,65.8
2017-04-13T01:34:39.559Z,65.8
2017-04-13T01:35:41.416Z,65.8
2017-04-13T01:36:43.279Z,65.8
2017-04-13T01:37:45.475Z,65.8
2017-04-13T01:38:47.332Z,65.8
2017-04-13T01:39:49.182Z,65.8
2017-04-13T01:40:51.381Z,65.7
2017-04-13T01:41:53.284Z,65.6
2017-04-13T01:42:55.130Z,65.5
2017-04-13T01:43:56.985Z,65.5
2017-04-13T01:44:58.839Z,65.6
2017-04-13T01:46:00.692Z,65.6
2017-04-13T01:47:02.550Z,65.6
2017-04-13T01:48:04.391Z,65.6
2017-04-13T01:49:06.255Z,65.7
2017-04-13T01:50:08.108Z,65.6
2017-04-13T01:51:09.966Z,65.6
2017-04-13T01:52:11.813Z,65.6
2017-04-13T01:53:13.661Z,65.5
2017-04-13T01:54:15.521Z,65.5
2017-04-13T01:55:17.379Z,65.5
2017-04-13T01:56:19.566Z,65.6
2017-04-13T01:57:21.423Z,65.5
2017-04-13T01:58:23.271Z,65.5
2017-04-13T01:59:25.142Z,65.6
2017-04-13T02:00:27.010Z,65.6
2017-04-13T02:01:28.860Z,65.6
2017-04-13T02:02:30.710Z,65.7
2017-04-13T02:03:32.560Z,65.7
2017-04-13T02:04:34.404Z,65.7
2017-04-13T02:05:36.655Z,65.7
2017-04-13T02:06:38.511Z,65.7
2017-04-13T02:07:40.709Z,65.7
2017-04-13T02:08:42.561Z,65.8
2017-04-13T02:09:44.407Z,65.7
2017-04-13T02:10:46.262Z,65.7
2017-04-13T02:11:48.123Z,65.6
2017-04-13T02:12:49.977Z,65.7
2017-04-13T02:13:52.169Z,65.8
2017-04-13T02:14:54.027Z,65.6
2017-04-13T02:15:55.876Z,65.6
2017-04-13T02:16:58.074Z,65.5
2017-04-13T02:17:59.920Z,65.6
2017-04-13T02:19:01.779Z,65.6
2017-04-13T02:20:03.959Z,65.6
2017-04-13T02:21:05.822Z,65.7
2017-04-13T02:22:07.679Z,65.8
2017-04-13T02:23:09.533Z,65.8
2017-04-13T02:24:11.388Z,65.8
2017-04-13T02:25:13.245Z,65.8
2017-04-13T02:26:15.429Z,65.8
2017-04-13T02:27:17.280Z,65.8
2017-04-13T02:28:19.124Z,65.8
2017-04-13T02:29:21.029Z,65.8
2017-04-13T02:30:22.873Z,65.8
2017-04-13T02:31:25.082Z,65.8
2017-04-13T02:32:27.263Z,65.7
2017-04-13T02:33:29.123Z,65.8
2017-04-13T02:34:30.975Z,65.7
2017-04-13T02:35:32.825Z,65.6
2017-04-13T02:36:35.025Z,65.7
2017-04-13T02:37:36.887Z,65.7
2017-04-13T02:38:38.741Z,65.7
2017-04-13T02:39:40.602Z,65.7
2017-04-13T02:40:42.449Z,65.8
2017-04-13T02:41:44.303Z,65.7
2017-04-13T02:42:46.156Z,65.7
2017-04-13T02:43:48.019Z,65.7
2017-04-13T02:44:49.890Z,65.7
2017-04-13T02:45:52.083Z,65.8
2017-04-13T02:46:53.931Z,65.6
2017-04-13T02:47:55.786Z,65.6
2017-04-13T02:48:57.643Z,65.6
2017-04-13T02:49:59.857Z,65.6
2017-04-13T02:51:02.043Z,65.7
2017-04-13T02:52:03.902Z,65.7
2017-04-13T02:53:05.753Z,65.7
2017-04-13T02:54:07.603Z,65.8
2017-04-13T02:55:09.464Z,65.8
2017-04-13T02:56:11.311Z,65.6
2017-04-13T02:57:13.167Z,65.7
2017-04-13T02:58:15.027Z,65.7
2017-04-13T02:59:17.205Z,65.6
2017-04-13T03:00:19.068Z,65.7
2017-04-13T03:01:20.917Z,65.8
2017-04-13T03:02:22.776Z,65.8
2017-04-13T03:03:24.617Z,65.9
2017-04-13T03:04:26.469Z,65.8
2017-04-13T03:05:28.320Z,65.9
2017-04-13T03:06:30.171Z,65.8
2017-04-13T03:07:32.031Z,65.9
2017-04-13T03:08:33.879Z,65.9
2017-04-13T03:09:35.725Z,65.9
2017-04-13T03:10:37.591Z,65.9
2017-04-13T03:11:39.446Z,65.8
2017-04-13T03:12:41.640Z,65.8
2017-04-13T03:13:43.822Z,65.8
2017-04-13T03:14:45.678Z,65.8
2017-04-13T03:15:47.534Z,65.9
2017-04-13T03:16:49.389Z,65.9
2017-04-13T03:17:51.245Z,65.9
2017-04-13T03:18:53.291Z,65.9
2017-04-13T03:19:55.158Z,65.9
2017-04-13T03:20:57.023Z,65.9
2017-04-13T03:21:59.247Z,65.9
2017-04-13T03:23:01.446Z,65.9
2017-04-13T03:24:03.304Z,65.9
2017-04-13T03:25:05.159Z,65.9
2017-04-13T03:26:07.010Z,65.9
2017-04-13T03:27:08.862Z,65.9
2017-04-13T03:28:10.714Z,65.9
2017-04-13T03:29:12.596Z,65.9
2017-04-13T03:30:14.807Z,65.9
2017-04-13T03:31:17.001Z,65.9
2017-04-13T03:32:19.211Z,65.9
2017-04-13T03:33:21.074Z,65.9
2017-04-13T03:34:22.939Z,65.9
2017-04-13T03:35:24.796Z,65.9
2017-04-13T03:36:26.653Z,66
2017-04-13T03:37:28.499Z,65.8
2017-04-13T03:38:30.352Z,65.8
2017-04-13T03:39:32.202Z,65.9
2017-04-13T03:40:34.063Z,65.8
2017-04-13T03:41:36.297Z,65.9
2017-04-13T03:42:38.488Z,65.7
2017-04-13T03:43:40.345Z,65.8
2017-04-13T03:44:42.187Z,65.8
2017-04-13T03:45:44.389Z,65.8
2017-04-13T03:46:46.243Z,65.8
2017-04-13T03:47:48.091Z,65.9
2017-04-13T03:48:50.289Z,65.8
2017-04-13T03:49:52.135Z,65.8
2017-04-13T03:50:53.991Z,65.8
2017-04-13T03:51:55.841Z,65.7
2017-04-13T03:52:57.706Z,65.7
2017-04-13T03:53:59.567Z,65.8
2017-04-13T03:55:01.765Z,65.7
2017-04-13T03:56:04.015Z,65.8
2017-04-13T03:57:05.866Z,65.8
2017-04-13T03:58:07.727Z,65.8
2017-04-13T03:59:09.592Z,65.9
2017-04-13T04:00:11.436Z,65.9
2017-04-13T04:01:13.295Z,65.9
2017-04-13T04:02:15.144Z,65.8
2017-04-13T04:03:17.009Z,65.8
2017-04-13T04:04:18.856Z,65.8
2017-04-13T04:05:20.711Z,65.8
2017-04-13T04:06:22.560Z,65.8
2017-04-13T04:07:24.409Z,65.8
2017-04-13T04:08:26.262Z,65.8
2017-04-13T04:09:28.153Z,65.9
2017-04-13T04:10:30.007Z,65.9
2017-04-13T04:11:31.870Z,66
2017-04-13T04:12:33.721Z,66
2017-04-13T04:13:35.569Z,66
2017-04-13T04:14:37.785Z,65.9
2017-04-13T04:15:40.315Z,65.9
2017-04-13T04:16:42.167Z,66
2017-04-13T04:17:44.022Z,66
2017-04-13T04:18:45.873Z,65.9
2017-04-13T04:19:47.727Z,66
2017-04-13T04:20:49.582Z,66
2017-04-13T04:21:51.444Z,66
2017-04-13T04:22:53.631Z,66
2017-04-13T04:23:55.480Z,66
2017-04-13T04:24:57.327Z,65.9
2017-04-13T04:25:59.521Z,65.9
2017-04-13T04:27:01.373Z,65.9
2017-04-13T04:28:03.227Z,65.8
2017-04-13T04:29:05.082Z,65.9
2017-04-13T04:30:06.954Z,65.9
2017-04-13T04:31:09.146Z,66
2017-04-13T04:32:11.001Z,66
2017-04-13T04:33:12.849Z,66
2017-04-13T04:34:15.058Z,66
2017-04-13T04:35:16.959Z,66
2017-04-13T04:36:18.812Z,66
2017-04-13T04:37:20.662Z,65.9
2017-04-13T04:38:22.520Z,66
2017-04-13T04:39:24.376Z,66
2017-04-13T04:40:26.234Z,65.9
2017-04-13T04:41:28.077Z,65.9
2017-04-13T04:42:29.936Z,66
2017-04-13T04:43:31.797Z,66
2017-04-13T04:44:33.661Z,65.8
2017-04-13T04:45:35.517Z,65.9
2017-04-13T04:46:37.727Z,65.9
2017-04-13T04:47:39.911Z,65.8
2017-04-13T04:48:41.769Z,65.8
2017-04-13T04:49:43.623Z,65.8
2017-04-13T04:50:45.476Z,65.8
2017-04-13T04:51:47.675Z,65.8
2017-04-13T04:52:49.533Z,65.8
2017-04-13T04:53:51.398Z,65.8
2017-04-13T04:54:53.579Z,65.9
2017-04-13T04:55:55.429Z,66
2017-04-13T04:56:57.277Z,65.9
2017-04-13T04:57:59.151Z,65.8
2017-04-13T04:59:01.035Z,65.8
2017-04-13T05:00:03.232Z,65.9
2017-04-13T05:01:05.081Z,65.9
2017-04-13T05:02:07.320Z,66
2017-04-13T05:03:09.198Z,66.1
2017-04-13T05:04:11.051Z,66
2017-04-13T05:05:12.912Z,66
2017-04-13T05:06:14.762Z,65.9
2017-04-13T05:07:16.616Z,65.8
2017-04-13T05:08:18.468Z,65.8
2017-04-13T05:09:20.328Z,65.8
2017-04-13T05:10:22.506Z,65.8
2017-04-13T05:11:24.360Z,65.9
2017-04-13T05:12:26.216Z,65.9
2017-04-13T05:13:28.070Z,65.9
2017-04-13T05:14:29.923Z,66.1
2017-04-13T05:15:31.773Z,66.1
2017-04-13T05:16:33.628Z,66.1
2017-04-13T05:17:36.164Z,66.1
2017-04-13T05:18:38.046Z,65.9
2017-04-13T05:19:39.893Z,66
2017-04-13T05:20:41.794Z,65
2017-04-13T05:21:43.647Z,65.9
2017-04-13T05:22:45.494Z,65.9
2017-04-13T05:23:47.347Z,65.9
2017-04-13T05:24:49.205Z,66
2017-04-13T05:25:51.056Z,65.1
2017-04-13T05:26:52.956Z,65.1
2017-04-13T05:28:16.164Z,65.1
2017-04-13T05:29:18.036Z,65.1
2017-04-13T05:30:19.888Z,65.2
2017-04-13T05:31:21.754Z,65.2
2017-04-13T05:32:23.631Z,65.2
2017-04-13T05:33:25.494Z,65.3
2017-04-13T05:34:27.407Z,65.2
2017-04-13T05:35:29.271Z,65.2
2017-04-13T05:36:31.135Z,65.1
2017-04-13T05:37:33.131Z,65.1
2017-04-13T05:38:34.993Z,65
2017-04-13T05:39:37.199Z,65
2017-04-13T05:40:39.086Z,65.1
2017-04-13T05:41:40.960Z,64.9
2017-04-13T05:42:43.154Z,64.8
2017-04-13T05:43:45.029Z,64.7
2017-04-13T05:44:47.238Z,64.8
2017-04-13T05:45:49.105Z,64.7
2017-04-13T05:46:50.967Z,64.7
2017-04-13T05:47:52.811Z,64.5
2017-04-13T05:48:54.665Z,64.5
2017-04-13T05:49:56.617Z,64.5
2017-04-13T05:50:58.574Z,64.4
2017-04-13T05:52:00.482Z,64.5
2017-04-13T05:53:02.386Z,64.6
2017-04-13T05:54:04.601Z,64.7
2017-04-13T05:55:06.484Z,64.7
2017-04-13T05:56:08.335Z,64.8
2017-04-13T05:57:10.195Z,64.7
2017-04-13T05:58:12.042Z,64.8
2017-04-13T05:59:13.904Z,64.7
2017-04-13T06:00:15.764Z,64.7
2017-04-13T06:01:17.613Z,64.8
2017-04-13T06:02:19.474Z,64.7
2017-04-13T06:03:21.319Z,64.7
2017-04-13T06:04:23.194Z,64.6
2017-04-13T06:05:25.393Z,64.6
2017-04-13T06:06:27.248Z,64.7
2017-04-13T06:07:29.198Z,64.6
2017-04-13T06:08:31.062Z,64.6
2017-04-13T06:09:32.920Z,64.5
2017-04-13T06:10:34.790Z,64.5
2017-04-13T06:11:36.645Z,64.5
2017-04-13T06:12:38.507Z,64.6
2017-04-13T06:13:40.364Z,64.6
2017-04-13T06:14:42.211Z,64.6
2017-04-13T06:15:44.072Z,64.5
2017-04-13T06:16:45.929Z,64.5
2017-04-13T06:17:47.790Z,64.5
2017-04-13T06:18:49.640Z,64.7
2017-04-13T06:19:51.502Z,64.7
2017-04-13T06:20:53.699Z,64.7
2017-04-13T06:21:55.571Z,64.7
2017-04-13T06:22:57.423Z,64.6
2017-04-13T06:23:59.284Z,64.5
2017-04-13T06:25:01.136Z,64.7
2017-04-13T06:26:03.000Z,64.7
2017-04-13T06:27:04.853Z,64.7
2017-04-13T06:28:06.713Z,64.6
2017-04-13T06:29:08.567Z,64.7
2017-04-13T06:30:10.427Z,64.6
2017-04-13T06:31:12.289Z,64.7
2017-04-13T06:32:14.156Z,64.6
2017-04-13T06:33:16.018Z,64.6
2017-04-13T06:34:17.873Z,64.8
2017-04-13T06:35:19.725Z,64.7
2017-04-13T06:36:21.590Z,64.9
2017-04-13T06:37:23.448Z,64.8
2017-04-13T06:38:25.315Z,64.7
2017-04-13T06:39:27.170Z,64.5
2017-04-13T06:40:29.034Z,64.3
2017-04-13T06:41:30.897Z,64.3
2017-04-13T06:42:33.098Z,64.2
2017-04-13T06:43:34.947Z,64.2
2017-04-13T06:44:36.817Z,64.2
2017-04-13T06:45:39.367Z,64
2017-04-13T06:46:41.222Z,64.1
2017-04-13T06:47:43.075Z,64.1
2017-04-13T06:48:44.934Z,64.3
2017-04-13T06:49:46.808Z,64.3
2017-04-13T06:50:48.661Z,64.4
2017-04-13T06:51:50.861Z,64.4
2017-04-13T06:52:53.055Z,64.2
2017-04-13T06:53:54.923Z,64
2017-04-13T06:54:56.781Z,64
2017-04-13T06:55:58.644Z,64
2017-04-13T06:57:00.498Z,64
2017-04-13T06:58:02.355Z,64.1
2017-04-13T06:59:04.209Z,64
2017-04-13T07:00:06.060Z,64.1
2017-04-13T07:01:07.921Z,64.1
2017-04-13T07:02:09.787Z,64.1
2017-04-13T07:03:11.644Z,64
2017-04-13T07:04:13.498Z,63.8
2017-04-13T07:05:15.704Z,63.9
2017-04-13T07:06:17.573Z,64
2017-04-13T07:07:49.238Z,64
2017-04-13T07:08:54.205Z,64.1
2017-04-13T07:09:56.062Z,64.3
2017-04-13T07:10:57.918Z,64.4
2017-04-13T07:12:00.143Z,64.1
2017-04-13T07:13:02.297Z,63.9
2017-04-13T07:14:04.165Z,63.8
2017-04-13T07:15:06.036Z,63.7
2017-04-13T07:16:07.887Z,63.7
2017-04-13T07:17:09.748Z,64
2017-04-13T07:18:11.613Z,64
2017-04-13T07:19:13.466Z,64.1
2017-04-13T07:20:15.329Z,64
2017-04-13T07:21:17.684Z,63.8
2017-04-13T07:22:19.727Z,63.6
2017-04-13T07:23:21.944Z,63.5
2017-04-13T07:24:23.809Z,63.5
2017-04-13T07:25:25.659Z,63.5
2017-04-13T07:26:27.515Z,63.4
2017-04-13T07:27:29.432Z,63.5
2017-04-13T07:28:31.280Z,63.7
2017-04-13T07:29:33.150Z,63.5
2017-04-13T07:30:35.005Z,63.4
2017-04-13T07:31:36.865Z,63.4
2017-04-13T07:32:38.750Z,63.5
2017-04-13T07:33:40.609Z,63.5
2017-04-13T07:34:42.481Z,63.4
2017-04-13T07:35:44.362Z,63.4
2017-04-13T07:36:46.261Z,63.5
2017-04-13T07:37:48.138Z,63.3
2017-04-13T07:38:50.039Z,63.4
2017-04-13T07:39:51.903Z,63.5
2017-04-13T07:40:53.766Z,63.8
2017-04-13T07:41:55.623Z,63.8
2017-04-13T07:42:57.491Z,64
2017-04-13T07:43:59.442Z,64
2017-04-13T07:45:01.307Z,63.9
2017-04-13T07:46:03.567Z,63.9
2017-04-13T07:47:05.418Z,63.9
2017-04-13T07:48:07.280Z,63.8
2017-04-13T07:49:09.139Z,63.8
2017-04-13T07:50:11.331Z,63.8
2017-04-13T07:51:13.184Z,64
2017-04-13T07:52:15.039Z,63.8
2017-04-13T07:53:16.899Z,63.8
2017-04-13T07:54:18.750Z,63.8
2017-04-13T07:55:20.669Z,63.8
2017-04-13T07:56:22.529Z,63.7
2017-04-13T07:57:24.390Z,63.5
2017-04-13T07:58:26.318Z,63.5
2017-04-13T07:59:28.185Z,63.5
2017-04-13T08:00:30.145Z,63.6
2017-04-13T08:01:32.007Z,63.8
2017-04-13T08:02:34.195Z,63.8
2017-04-13T08:03:36.066Z,63.8
2017-04-13T08:04:37.925Z,63.7
2017-04-13T08:05:39.777Z,63.6
2017-04-13T08:06:41.624Z,63.4
2017-04-13T08:07:43.484Z,62.9
2017-04-13T08:08:45.422Z,62.9
2017-04-13T08:09:47.615Z,62.9
2017-04-13T08:10:49.464Z,63.1
2017-04-13T08:11:51.426Z,63.1
2017-04-13T08:12:53.276Z,63.1
2017-04-13T08:13:55.130Z,63.3
2017-04-13T08:14:56.985Z,63.4
2017-04-13T08:15:58.854Z,63.3
2017-04-13T08:17:00.714Z,63.3
2017-04-13T08:18:02.675Z,63.2
2017-04-13T08:19:04.533Z,63.3
2017-04-13T08:20:06.388Z,63.4
2017-04-13T08:21:08.251Z,63.4
2017-04-13T08:22:10.120Z,63.4
2017-04-13T08:23:11.982Z,63.4
2017-04-13T08:24:13.844Z,63.4
2017-04-13T08:25:15.711Z,63.2
2017-04-13T08:26:17.568Z,62.9
2017-04-13T08:27:19.425Z,62.7
2017-04-13T08:28:21.280Z,62.6
2017-04-13T08:29:23.269Z,62.6
2017-04-13T08:30:25.129Z,62.3
2017-04-13T08:31:26.994Z,62.3
2017-04-13T08:32:28.841Z,62.5
2017-04-13T08:33:30.704Z,62.6
2017-04-13T08:34:32.555Z,62.7
2017-04-13T08:35:34.749Z,62.8
2017-04-13T08:36:36.943Z,62.8
2017-04-13T08:37:38.794Z,62.8
2017-04-13T08:38:40.667Z,62.7
2017-04-13T08:39:42.758Z,62.5
2017-04-13T08:40:44.624Z,62.7
2017-04-13T08:41:46.815Z,62.6
2017-04-13T08:42:48.675Z,62.3
2017-04-13T08:43:50.869Z,62.1
2017-04-13T08:44:52.725Z,62
2017-04-13T08:45:54.769Z,62
2017-04-13T08:46:56.627Z,62.1
2017-04-13T08:47:58.477Z,62.3
2017-04-13T08:49:00.327Z,62.3
2017-04-13T08:50:02.202Z,62.3
2017-04-13T08:51:04.055Z,62.4
2017-04-13T08:52:05.920Z,62.1
2017-04-13T08:53:08.041Z,61.8
2017-04-13T08:54:09.900Z,61.9
2017-04-13T08:55:11.766Z,61.8
2017-04-13T08:56:14.005Z,61.7
2017-04-13T08:57:15.858Z,61.6
2017-04-13T08:58:17.750Z,61.6
2017-04-13T08:59:19.614Z,61.6
2017-04-13T09:00:21.610Z,62.2
2017-04-13T09:01:23.583Z,62.4
2017-04-13T09:02:25.441Z,62.8
2017-04-13T09:03:27.293Z,62.9
2017-04-13T09:04:29.148Z,63.3
2017-04-13T09:05:31.255Z,62.9
2017-04-13T09:06:33.448Z,62.3
2017-04-13T09:07:35.306Z,62.2
2017-04-13T09:08:37.162Z,62.3
2017-04-13T09:09:39.011Z,63.1
2017-04-13T09:10:40.867Z,63.1
2017-04-13T09:11:42.737Z,63.5
2017-04-13T09:12:44.799Z,63.8
2017-04-13T09:13:46.656Z,64.4
2017-04-13T09:14:48.527Z,65.2
2017-04-13T09:15:50.384Z,65.7
2017-04-13T09:16:52.244Z,65.9
2017-04-13T09:17:54.101Z,65.9
2017-04-13T09:18:55.977Z,65.8
2017-04-13T09:19:57.907Z,65.4
2017-04-13T09:21:02.524Z,64.9
2017-04-13T09:22:04.602Z,64.4
2017-04-13T09:23:06.454Z,63.9
2017-04-13T09:24:08.481Z,63.2
2017-04-13T09:25:10.352Z,62.3
2017-04-13T09:26:12.353Z,62.4
2017-04-13T09:27:14.224Z,62.1
2017-04-13T09:28:16.129Z,61.4
2017-04-13T09:29:17.991Z,60.9
2017-04-13T09:30:19.873Z,60.5
2017-04-13T09:31:21.732Z,60.5
2017-04-13T09:32:23.590Z,60.2
2017-04-13T09:33:25.457Z,60.3
2017-04-13T09:34:27.651Z,60.4
2017-04-13T09:35:29.528Z,60.7
2017-04-13T09:36:31.390Z,60.3
2017-04-13T09:37:33.251Z,60.3
2017-04-13T09:38:35.118Z,60.6
2017-04-13T09:39:37.047Z,60.3
2017-04-13T09:40:38.911Z,60.9
2017-04-13T09:41:40.791Z,61.1
2017-04-13T09:42:42.665Z,62
2017-04-13T09:43:44.875Z,62.2
2017-04-13T09:44:46.743Z,62.5
2017-04-13T09:45:48.652Z,63.1
2017-04-13T09:46:50.508Z,63.4
2017-04-13T09:47:52.379Z,63.3
2017-04-13T09:48:54.250Z,63
2017-04-13T09:49:56.113Z,62.6
2017-04-13T09:50:57.966Z,62.1
2017-04-13T09:51:59.845Z,61.4
2017-04-13T09:53:01.723Z,60.4
2017-04-13T09:54:03.660Z,60.1
2017-04-13T09:55:05.526Z,59.9
2017-04-13T09:56:07.534Z,60
2017-04-13T09:57:09.400Z,60.5
2017-04-13T09:58:11.737Z,60.2
2017-04-13T09:59:13.608Z,59.9
2017-04-13T10:00:15.545Z,59.2
2017-04-13T10:01:17.418Z,59.3
2017-04-13T10:02:19.289Z,59.9
2017-04-13T10:03:21.252Z,60.6
2017-04-13T10:04:23.544Z,61.1
2017-04-13T10:05:25.406Z,60.5
2017-04-13T10:06:27.281Z,60
2017-04-13T10:07:29.486Z,59.6
2017-04-13T10:08:31.350Z,59.6
2017-04-13T10:09:33.585Z,59.4
2017-04-13T10:10:35.562Z,59.1
2017-04-13T10:11:37.417Z,58.8
2017-04-13T10:12:39.287Z,58.6
2017-04-13T10:13:41.254Z,58.6
2017-04-13T10:14:43.133Z,58.9
2017-04-13T10:15:45.000Z,59.5
2017-04-13T10:16:46.859Z,59.4
2017-04-13T10:17:48.799Z,59.4
2017-04-13T10:18:50.655Z,59.4
2017-04-13T10:19:52.849Z,59.4
2017-04-13T10:20:54.719Z,59
2017-04-13T10:21:56.587Z,58.8
2017-04-13T10:22:59.147Z,58.5
2017-04-13T10:24:01.121Z,58.6
2017-04-13T10:25:02.990Z,58.7
2017-04-13T10:26:05.563Z,59.5
2017-04-13T10:27:07.767Z,60.1
2017-04-13T10:28:09.646Z,60.6
2017-04-13T10:29:11.511Z,61.1
2017-04-13T10:30:13.445Z,61.4
2017-04-13T10:31:15.315Z,61.8
2017-04-13T10:32:17.178Z,62.3
2017-04-13T10:33:19.041Z,62.6
2017-04-13T10:34:20.910Z,62.2
2017-04-13T10:35:22.773Z,62.4
2017-04-13T10:36:24.640Z,62.5
2017-04-13T10:37:26.488Z,62.7
2017-04-13T10:38:28.438Z,62.8
2017-04-13T10:39:30.308Z,62.5
2017-04-13T10:40:32.175Z,62.5
2017-04-13T10:41:34.193Z,62.5
2017-04-13T10:42:36.745Z,62.2
2017-04-13T10:43:38.729Z,61.8
2017-04-13T10:44:40.594Z,61.9
2017-04-13T10:45:42.452Z,62
2017-04-13T10:46:44.321Z,61.6
2017-04-13T10:47:46.301Z,61.2
2017-04-13T10:48:48.503Z,61
2017-04-13T10:49:50.645Z,61
2017-04-13T10:50:52.732Z,61.2
2017-04-13T10:51:54.628Z,61.3
2017-04-13T10:52:56.619Z,61.3
2017-04-13T10:53:58.482Z,60.5
2017-04-13T10:55:00.349Z,59.5
2017-04-13T10:56:02.208Z,59.3
2017-04-13T10:57:04.257Z,59.2
2017-04-13T10:58:06.127Z,59.6
2017-04-13T10:59:08.334Z,59.9
2017-04-13T11:00:10.382Z,59.9
2017-04-13T11:01:12.246Z,59.9
2017-04-13T11:02:14.455Z,60.2
2017-04-13T11:03:16.526Z,60.2
2017-04-13T11:04:18.396Z,59.5
2017-04-13T11:05:20.297Z,58.9
2017-04-13T11:06:22.169Z,58.3
2017-04-13T11:07:24.054Z,57.7
2017-04-13T11:08:25.927Z,57.3
2017-04-13T11:09:27.797Z,56.9
2017-04-13T11:10:29.957Z,56.8
2017-04-13T11:11:31.969Z,56.9
2017-04-13T11:12:34.112Z,57.2
2017-04-13T11:13:36.007Z,57.8
2017-04-13T11:14:38.205Z,58.2
2017-04-13T11:15:40.074Z,57.9
2017-04-13T11:16:41.935Z,57.1
2017-04-13T11:17:43.800Z,56.9
2017-04-13T11:18:46.037Z,56.8
2017-04-13T11:19:47.976Z,56.7
2017-04-13T11:20:50.174Z,56.6
2017-04-13T11:21:52.044Z,56.6
2017-04-13T11:22:53.928Z,56.4
2017-04-13T11:23:55.943Z,56.2
2017-04-13T11:24:57.815Z,56.8
2017-04-13T11:25:59.679Z,57.4
2017-04-13T11:27:01.554Z,57.4
2017-04-13T11:28:03.412Z,57.7
2017-04-13T11:29:05.453Z,58.2
2017-04-13T11:30:08.002Z,58.3
2017-04-13T11:31:09.864Z,58.2
2017-04-13T11:32:11.969Z,57.8
2017-04-13T11:33:13.848Z,57.5
2017-04-13T11:34:16.039Z,57.1
2017-04-13T11:35:17.918Z,57
2017-04-13T11:36:19.781Z,57.1
2017-04-13T11:37:21.881Z,57.7
2017-04-13T11:38:23.783Z,57.8
2017-04-13T11:39:25.992Z,57.8
2017-04-13T11:40:27.858Z,57.3
2017-04-13T11:41:29.722Z,57
2017-04-13T11:42:31.808Z,56.9
2017-04-13T11:43:33.669Z,56.4
2017-04-13T11:44:35.549Z,56.3
2017-04-13T11:45:37.533Z,56.6
2017-04-13T11:46:39.410Z,57.2
2017-04-13T11:47:42.046Z,57.6
2017-04-13T11:48:43.913Z,58
2017-04-13T11:49:45.791Z,58.3
2017-04-13T11:50:47.657Z,58.3
2017-04-13T11:51:49.516Z,58.2
2017-04-13T11:52:51.394Z,58.3
2017-04-13T11:53:53.249Z,58.3
2017-04-13T11:54:55.125Z,57.9
2017-04-13T11:55:56.996Z,57.8
2017-04-13T11:56:59.402Z,57.7
2017-04-13T11:58:01.269Z,57.3
2017-04-13T11:59:35.245Z,56.9
2017-04-13T12:00:37.087Z,56.8
2017-04-13T12:01:38.907Z,57.1
2017-04-13T12:02:40.726Z,57.2
2017-04-13T12:03:42.559Z,56.4
2017-04-13T12:04:44.721Z,56.1
2017-04-13T12:05:46.545Z,56
2017-04-13T12:06:48.365Z,55.9
2017-04-13T12:07:50.189Z,56
2017-04-13T12:08:52.010Z,56
2017-04-13T12:09:53.831Z,56.5
2017-04-13T12:10:55.645Z,56.6
2017-04-13T12:11:57.477Z,56.2
2017-04-13T12:12:59.290Z,55.9
2017-04-13T12:14:01.107Z,55.8
2017-04-13T12:15:02.922Z,55.7
2017-04-13T12:16:04.754Z,55.7
2017-04-13T12:17:06.618Z,55.8
2017-04-13T12:18:08.437Z,55.5
2017-04-13T12:19:10.263Z,55.4
2017-04-13T12:20:12.081Z,55.3
2017-04-13T12:21:13.918Z,55.4
2017-04-13T12:22:15.757Z,55.3
2017-04-13T12:23:17.917Z,55.3
2017-04-13T12:24:19.746Z,55.6
2017-04-13T12:25:21.571Z,55.7
2017-04-13T12:26:23.391Z,55.6
2017-04-13T12:27:25.217Z,55.4
2017-04-13T12:28:27.032Z,55.5
2017-04-13T12:29:28.860Z,55.7
2017-04-13T12:30:30.666Z,55.9
2017-04-13T12:31:32.509Z,56.1
2017-04-13T12:32:34.429Z,56.4
2017-04-13T12:33:36.580Z,56.8
2017-04-13T12:34:38.426Z,57.4
2017-04-13T12:35:40.242Z,57.6
2017-04-13T12:36:42.153Z,57.9
2017-04-13T12:37:44.530Z,58.2
2017-04-13T12:38:46.341Z,58.7
2017-04-13T12:39:48.197Z,59.2
2017-04-13T12:40:50.009Z,59.5
2017-04-13T12:41:51.832Z,59.8
2017-04-13T12:42:53.642Z,59.8
2017-04-13T12:43:55.797Z,59.6
2017-04-13T12:44:57.625Z,59
2017-04-13T12:45:59.937Z,59.1
2017-04-13T12:47:01.752Z,58.9
2017-04-13T12:48:03.569Z,58.5
2017-04-13T12:49:05.394Z,58.6
2017-04-13T12:50:07.218Z,58.1
2017-04-13T12:51:09.287Z,58.7
2017-04-13T12:52:11.106Z,58.6
2017-04-13T12:53:12.919Z,58.8
2017-04-13T12:54:14.742Z,58.9
2017-04-13T12:55:16.554Z,58.8
2017-04-13T12:56:18.371Z,58.8
2017-04-13T12:57:20.426Z,58.7
2017-04-13T12:58:22.245Z,58.7
2017-04-13T12:59:24.512Z,58.4
2017-04-13T13:00:32.625Z,57.9
2017-04-13T13:01:52.640Z,57.9
2017-04-13T13:02:55.028Z,57.9
2017-04-13T13:03:59.886Z,58.2
2017-04-13T13:11:17.719Z,57.3
2017-04-13T13:12:19.626Z,57.5
2017-04-13T13:13:21.446Z,57.2
2017-04-13T13:14:23.270Z,56.9
2017-04-13T13:15:25.441Z,56.8
2017-04-13T13:16:27.270Z,56.6
2017-04-13T13:17:29.504Z,56.1
2017-04-13T13:18:31.344Z,56.2
2017-04-13T13:19:33.160Z,56.4
2017-04-13T13:20:34.985Z,56.3
2017-04-13T13:21:36.793Z,56.4
2017-04-13T13:22:38.624Z,56.7
2017-04-13T13:23:40.782Z,56.5
2017-04-13T13:24:42.605Z,56.7
2017-04-13T13:25:44.427Z,56.7
2017-04-13T13:26:46.250Z,56.6
2017-04-13T13:27:48.068Z,56.3
2017-04-13T13:28:49.904Z,56
2017-04-13T13:29:51.843Z,55.8
2017-04-13T13:30:53.720Z,55.6
2017-04-13T13:31:55.533Z,55.6
2017-04-13T13:32:57.367Z,55.3
2017-04-13T13:33:59.188Z,55.3
2017-04-13T13:35:01.005Z,55.5
2017-04-13T13:36:03.165Z,55.8
2017-04-13T13:37:04.985Z,55.9
2017-04-13T13:38:06.817Z,55.7
2017-04-13T13:39:08.641Z,55.6
2017-04-13T13:40:10.469Z,55.6
2017-04-13T13:41:12.288Z,55.7
2017-04-13T13:42:14.112Z,56
2017-04-13T13:43:15.938Z,56.1
2017-04-13T13:44:17.806Z,56.2
2017-04-13T13:45:19.637Z,56.4
2017-04-13T13:46:21.445Z,56.8
2017-04-13T13:47:23.290Z,56.6
2017-04-13T13:48:25.103Z,56.8
2017-04-13T13:49:26.932Z,56.8
2017-04-13T13:50:29.139Z,57.3
2017-04-13T13:51:31.315Z,57.2
2017-04-13T13:52:33.475Z,57.2
2017-04-13T13:53:35.621Z,57.4
2017-04-13T13:54:37.786Z,57.7
2017-04-13T13:55:39.617Z,58
2017-04-13T13:56:41.431Z,58